sensor_id;sensor_type;location;lat;lon;timestamp;P1;durP1;ratioP1;P2;durP2;ratioP2
5718;SDS011;2884;47.734;9.244;2022-09-03T00:00:14;7.17;;;6.13;;
5718;SDS011;2884;47.734;9.244;2022-09-03T00:14:14;7.07;;;5.77;;
5718;SDS011;2884;47.734;9.244;2022-09-03T00:19:17;6.00;;;5.10;;
5718;SDS011;2884;47.734;9.244;2022-09-03T00:21:58;11.43;;;5.63;;
5718;SDS011;2884;47.734;9.244;2022-09-03T00:24:29;7.90;;;6.40;;
5718;SDS011;2884;47.734;9.244;2022-09-03T00:27:15;6.40;;;6.00;;
5718;SDS011;2884;47.734;9.244;2022-09-03T00:29:46;8.70;;;6.07;;
5718;SDS011;2884;47.734;9.244;2022-09-03T00:32:19;6.23;;;5.80;;
5718;SDS011;2884;47.734;9.244;2022-09-03T00:34:59;8.37;;;6.23;;
5718;SDS011;2884;47.734;9.244;2022-09-03T00:37:31;6.70;;;6.20;;
5718;SDS011;2884;47.734;9.244;2022-09-03T00:40:05;6.73;;;6.13;;
5718;SDS011;2884;47.734;9.244;2022-09-03T00:42:46;6.47;;;6.03;;
5718;SDS011;2884;47.734;9.244;2022-09-03T00:54:05;7.20;;;6.50;;
5718;SDS011;2884;47.734;9.244;2022-09-03T01:02:00;7.50;;;6.73;;
5718;SDS011;2884;47.734;9.244;2022-09-03T01:13:32;6.77;;;6.27;;
5718;SDS011;2884;47.734;9.244;2022-09-03T01:18:41;7.13;;;6.53;;
5718;SDS011;2884;47.734;9.244;2022-09-03T01:29:29;14.53;;;9.97;;
5718;SDS011;2884;47.734;9.244;2022-09-03T01:32:07;11.50;;;8.03;;
5718;SDS011;2884;47.734;9.244;2022-09-03T01:34:42;8.67;;;7.97;;
5718;SDS011;2884;47.734;9.244;2022-09-03T01:47:41;12.70;;;11.43;;
5718;SDS011;2884;47.734;9.244;2022-09-03T01:55:51;11.40;;;10.40;;
5718;SDS011;2884;47.734;9.244;2022-09-03T01:58:54;14.83;;;11.90;;
5718;SDS011;2884;47.734;9.244;2022-09-03T02:01:29;10.97;;;9.97;;
5718;SDS011;2884;47.734;9.244;2022-09-03T02:03:57;12.40;;;10.47;;
5718;SDS011;2884;47.734;9.244;2022-09-03T02:06:24;10.83;;;9.80;;
5718;SDS011;2884;47.734;9.244;2022-09-03T02:08:55;10.43;;;9.50;;
5718;SDS011;2884;47.734;9.244;2022-09-03T02:11:22;10.03;;;9.13;;
5718;SDS011;2884;47.734;9.244;2022-09-03T02:13:49;9.50;;;8.60;;
5718;SDS011;2884;47.734;9.244;2022-09-03T02:16:17;9.30;;;8.40;;
5718;SDS011;2884;47.734;9.244;2022-09-03T02:18:48;9.70;;;8.73;;
5718;SDS011;2884;47.734;9.244;2022-09-03T02:21:17;10.23;;;8.10;;
5718;SDS011;2884;47.734;9.244;2022-09-03T02:23:44;8.47;;;7.77;;
5718;SDS011;2884;47.734;9.244;2022-09-03T02:26:10;11.50;;;7.67;;
5718;SDS011;2884;47.734;9.244;2022-09-03T02:28:37;8.53;;;7.60;;
5718;SDS011;2884;47.734;9.244;2022-09-03T02:31:03;9.60;;;7.87;;
5718;SDS011;2884;47.734;9.244;2022-09-03T02:33:30;9.50;;;7.47;;
5718;SDS011;2884;47.734;9.244;2022-09-03T02:35:56;9.30;;;7.23;;
5718;SDS011;2884;47.734;9.244;2022-09-03T02:38:23;10.83;;;7.10;;
5718;SDS011;2884;47.734;9.244;2022-09-03T02:40:50;11.70;;;7.93;;
5718;SDS011;2884;47.734;9.244;2022-09-03T02:43:21;8.20;;;7.40;;
5718;SDS011;2884;47.734;9.244;2022-09-03T02:45:49;11.80;;;7.30;;
5718;SDS011;2884;47.734;9.244;2022-09-03T02:48:17;9.07;;;7.03;;
5718;SDS011;2884;47.734;9.244;2022-09-03T02:50:46;12.80;;;7.40;;
5718;SDS011;2884;47.734;9.244;2022-09-03T02:53:11;9.40;;;7.30;;
5718;SDS011;2884;47.734;9.244;2022-09-03T02:55:37;13.30;;;8.20;;
5718;SDS011;2884;47.734;9.244;2022-09-03T02:58:02;17.50;;;9.67;;
5718;SDS011;2884;47.734;9.244;2022-09-03T03:00:31;11.77;;;9.20;;
5718;SDS011;2884;47.734;9.244;2022-09-03T03:02:57;12.30;;;9.40;;
5718;SDS011;2884;47.734;9.244;2022-09-03T03:05:35;9.90;;;8.90;;
5718;SDS011;2884;47.734;9.244;2022-09-03T03:08:07;10.77;;;9.13;;
5718;SDS011;2884;47.734;9.244;2022-09-03T03:10:33;12.43;;;9.73;;
5718;SDS011;2884;47.734;9.244;2022-09-03T03:12:59;10.27;;;9.37;;
5718;SDS011;2884;47.734;9.244;2022-09-03T03:15:25;11.30;;;9.80;;
5718;SDS011;2884;47.734;9.244;2022-09-03T03:17:54;12.03;;;10.70;;
5718;SDS011;2884;47.734;9.244;2022-09-03T03:20:21;11.70;;;10.80;;
5718;SDS011;2884;47.734;9.244;2022-09-03T03:22:47;12.17;;;11.07;;
5718;SDS011;2884;47.734;9.244;2022-09-03T03:25:13;12.73;;;11.73;;
5718;SDS011;2884;47.734;9.244;2022-09-03T03:28:00;12.50;;;11.00;;
5718;SDS011;2884;47.734;9.244;2022-09-03T03:30:27;14.30;;;12.80;;
5718;SDS011;2884;47.734;9.244;2022-09-03T03:32:53;13.10;;;12.10;;
5718;SDS011;2884;47.734;9.244;2022-09-03T03:35:19;14.07;;;12.90;;
5718;SDS011;2884;47.734;9.244;2022-09-03T03:37:45;17.73;;;13.90;;
5718;SDS011;2884;47.734;9.244;2022-09-03T03:40:11;14.90;;;13.57;;
5718;SDS011;2884;47.734;9.244;2022-09-03T03:42:37;17.27;;;14.40;;
5718;SDS011;2884;47.734;9.244;2022-09-03T03:45:03;17.43;;;14.33;;
5718;SDS011;2884;47.734;9.244;2022-09-03T03:47:30;16.03;;;14.60;;
5718;SDS011;2884;47.734;9.244;2022-09-03T03:49:56;18.10;;;16.70;;
5718;SDS011;2884;47.734;9.244;2022-09-03T03:52:23;16.60;;;15.37;;
5718;SDS011;2884;47.734;9.244;2022-09-03T03:54:49;17.47;;;16.07;;
5718;SDS011;2884;47.734;9.244;2022-09-03T03:57:15;16.43;;;15.13;;
5718;SDS011;2884;47.734;9.244;2022-09-03T03:59:41;17.50;;;15.90;;
5718;SDS011;2884;47.734;9.244;2022-09-03T04:02:07;17.43;;;15.80;;
5718;SDS011;2884;47.734;9.244;2022-09-03T04:04:32;17.33;;;16.10;;
5718;SDS011;2884;47.734;9.244;2022-09-03T04:06:58;17.33;;;15.83;;
5718;SDS011;2884;47.734;9.244;2022-09-03T04:09:23;17.77;;;15.93;;
5718;SDS011;2884;47.734;9.244;2022-09-03T04:11:49;17.90;;;16.50;;
5718;SDS011;2884;47.734;9.244;2022-09-03T04:14:15;17.23;;;15.90;;
5718;SDS011;2884;47.734;9.244;2022-09-03T04:16:42;17.23;;;15.83;;
5718;SDS011;2884;47.734;9.244;2022-09-03T04:19:11;17.37;;;15.80;;
5718;SDS011;2884;47.734;9.244;2022-09-03T04:21:37;17.03;;;15.63;;
5718;SDS011;2884;47.734;9.244;2022-09-03T04:24:03;17.27;;;15.97;;
5718;SDS011;2884;47.734;9.244;2022-09-03T04:26:30;16.77;;;15.50;;
5718;SDS011;2884;47.734;9.244;2022-09-03T04:28:57;16.97;;;15.50;;
5718;SDS011;2884;47.734;9.244;2022-09-03T04:31:23;17.00;;;15.70;;
5718;SDS011;2884;47.734;9.244;2022-09-03T04:33:49;16.37;;;15.07;;
5718;SDS011;2884;47.734;9.244;2022-09-03T04:36:17;15.60;;;14.50;;
5718;SDS011;2884;47.734;9.244;2022-09-03T04:38:44;15.07;;;13.97;;
5718;SDS011;2884;47.734;9.244;2022-09-03T04:41:11;14.80;;;13.67;;
5718;SDS011;2884;47.734;9.244;2022-09-03T04:43:39;15.67;;;14.27;;
5718;SDS011;2884;47.734;9.244;2022-09-03T04:46:07;14.70;;;13.60;;
5718;SDS011;2884;47.734;9.244;2022-09-03T04:48:34;15.30;;;14.10;;
5718;SDS011;2884;47.734;9.244;2022-09-03T04:51:02;15.23;;;14.20;;
5718;SDS011;2884;47.734;9.244;2022-09-03T04:53:35;15.60;;;14.40;;
5718;SDS011;2884;47.734;9.244;2022-09-03T04:56:16;19.93;;;16.53;;
5718;SDS011;2884;47.734;9.244;2022-09-03T04:58:43;21.60;;;19.93;;
5718;SDS011;2884;47.734;9.244;2022-09-03T05:01:10;22.27;;;20.03;;
5718;SDS011;2884;47.734;9.244;2022-09-03T05:03:40;24.30;;;21.97;;
5718;SDS011;2884;47.734;9.244;2022-09-03T05:06:05;25.10;;;23.20;;
5718;SDS011;2884;47.734;9.244;2022-09-03T05:08:33;27.37;;;25.33;;
5718;SDS011;2884;47.734;9.244;2022-09-03T05:11:01;26.07;;;23.90;;
5718;SDS011;2884;47.734;9.244;2022-09-03T05:13:29;26.10;;;24.20;;
5718;SDS011;2884;47.734;9.244;2022-09-03T05:16:02;26.37;;;24.30;;
5718;SDS011;2884;47.734;9.244;2022-09-03T05:18:30;27.60;;;25.50;;
5718;SDS011;2884;47.734;9.244;2022-09-03T05:21:00;29.23;;;26.57;;
5718;SDS011;2884;47.734;9.244;2022-09-03T05:23:27;29.27;;;27.17;;
5718;SDS011;2884;47.734;9.244;2022-09-03T05:25:58;27.60;;;25.67;;
5718;SDS011;2884;47.734;9.244;2022-09-03T05:28:26;30.30;;;28.03;;
5718;SDS011;2884;47.734;9.244;2022-09-03T05:30:59;29.47;;;27.10;;
5718;SDS011;2884;47.734;9.244;2022-09-03T05:33:26;28.83;;;26.20;;
5718;SDS011;2884;47.734;9.244;2022-09-03T05:35:52;29.50;;;27.27;;
5718;SDS011;2884;47.734;9.244;2022-09-03T05:38:20;30.20;;;27.70;;
5718;SDS011;2884;47.734;9.244;2022-09-03T05:40:46;29.10;;;27.00;;
5718;SDS011;2884;47.734;9.244;2022-09-03T05:43:11;30.87;;;28.50;;
5718;SDS011;2884;47.734;9.244;2022-09-03T05:45:37;30.60;;;27.83;;
5718;SDS011;2884;47.734;9.244;2022-09-03T05:48:15;29.13;;;27.13;;
5718;SDS011;2884;47.734;9.244;2022-09-03T05:50:40;30.40;;;28.10;;
5718;SDS011;2884;47.734;9.244;2022-09-03T05:53:06;30.90;;;28.50;;
5718;SDS011;2884;47.734;9.244;2022-09-03T05:55:33;30.50;;;28.30;;
5718;SDS011;2884;47.734;9.244;2022-09-03T05:57:59;31.67;;;29.37;;
5718;SDS011;2884;47.734;9.244;2022-09-03T06:00:24;30.30;;;28.20;;
5718;SDS011;2884;47.734;9.244;2022-09-03T06:02:51;32.00;;;29.33;;
5718;SDS011;2884;47.734;9.244;2022-09-03T06:05:17;30.83;;;28.60;;
5718;SDS011;2884;47.734;9.244;2022-09-03T06:07:43;30.43;;;28.00;;
5718;SDS011;2884;47.734;9.244;2022-09-03T06:10:09;31.07;;;28.77;;
5718;SDS011;2884;47.734;9.244;2022-09-03T06:12:36;30.00;;;27.90;;
5718;SDS011;2884;47.734;9.244;2022-09-03T06:15:03;29.07;;;27.03;;
5718;SDS011;2884;47.734;9.244;2022-09-03T06:17:30;27.83;;;25.80;;
5718;SDS011;2884;47.734;9.244;2022-09-03T06:19:55;28.03;;;26.13;;
5718;SDS011;2884;47.734;9.244;2022-09-03T06:22:21;25.17;;;23.50;;
5718;SDS011;2884;47.734;9.244;2022-09-03T06:24:49;24.63;;;22.83;;
5718;SDS011;2884;47.734;9.244;2022-09-03T06:27:15;26.37;;;24.00;;
5718;SDS011;2884;47.734;9.244;2022-09-03T06:29:40;25.00;;;23.20;;
5718;SDS011;2884;47.734;9.244;2022-09-03T06:32:06;25.20;;;23.60;;
5718;SDS011;2884;47.734;9.244;2022-09-03T06:34:32;26.77;;;24.80;;
5718;SDS011;2884;47.734;9.244;2022-09-03T06:36:57;26.63;;;24.63;;
5718;SDS011;2884;47.734;9.244;2022-09-03T06:39:23;28.40;;;26.33;;
5718;SDS011;2884;47.734;9.244;2022-09-03T06:41:51;31.97;;;29.37;;
5718;SDS011;2884;47.734;9.244;2022-09-03T06:44:16;28.20;;;26.30;;
5718;SDS011;2884;47.734;9.244;2022-09-03T06:46:42;28.60;;;26.47;;
5718;SDS011;2884;47.734;9.244;2022-09-03T06:49:07;28.27;;;26.33;;
5718;SDS011;2884;47.734;9.244;2022-09-03T06:51:33;28.87;;;26.77;;
5718;SDS011;2884;47.734;9.244;2022-09-03T06:54:02;27.53;;;25.50;;
5718;SDS011;2884;47.734;9.244;2022-09-03T06:56:30;29.50;;;27.37;;
5718;SDS011;2884;47.734;9.244;2022-09-03T06:58:57;28.73;;;26.63;;
5718;SDS011;2884;47.734;9.244;2022-09-03T07:01:25;28.60;;;26.53;;
5718;SDS011;2884;47.734;9.244;2022-09-03T07:03:55;27.33;;;25.27;;
5718;SDS011;2884;47.734;9.244;2022-09-03T07:06:23;24.50;;;22.77;;
5718;SDS011;2884;47.734;9.244;2022-09-03T07:08:50;24.40;;;22.70;;
5718;SDS011;2884;47.734;9.244;2022-09-03T07:11:16;23.53;;;21.50;;
5718;SDS011;2884;47.734;9.244;2022-09-03T07:13:48;22.83;;;21.33;;
5718;SDS011;2884;47.734;9.244;2022-09-03T07:16:15;23.07;;;21.20;;
5718;SDS011;2884;47.734;9.244;2022-09-03T07:18:45;23.40;;;21.80;;
5718;SDS011;2884;47.734;9.244;2022-09-03T07:21:13;22.10;;;20.40;;
5718;SDS011;2884;47.734;9.244;2022-09-03T07:23:42;21.00;;;19.30;;
5718;SDS011;2884;47.734;9.244;2022-09-03T07:26:14;20.07;;;18.67;;
5718;SDS011;2884;47.734;9.244;2022-09-03T07:28:42;19.90;;;18.27;;
5718;SDS011;2884;47.734;9.244;2022-09-03T07:31:11;18.47;;;17.30;;
5718;SDS011;2884;47.734;9.244;2022-09-03T07:33:39;20.43;;;18.20;;
5718;SDS011;2884;47.734;9.244;2022-09-03T07:36:07;20.20;;;18.80;;
5718;SDS011;2884;47.734;9.244;2022-09-03T07:38:34;18.33;;;16.90;;
5718;SDS011;2884;47.734;9.244;2022-09-03T07:41:01;16.30;;;15.03;;
5718;SDS011;2884;47.734;9.244;2022-09-03T07:43:43;15.27;;;14.03;;
5718;SDS011;2884;47.734;9.244;2022-09-03T07:46:13;15.17;;;13.90;;
5718;SDS011;2884;47.734;9.244;2022-09-03T07:48:41;14.07;;;13.07;;
5718;SDS011;2884;47.734;9.244;2022-09-03T07:51:07;13.70;;;12.70;;
5718;SDS011;2884;47.734;9.244;2022-09-03T07:53:33;13.40;;;12.50;;
5718;SDS011;2884;47.734;9.244;2022-09-03T07:56:01;13.70;;;12.60;;
5718;SDS011;2884;47.734;9.244;2022-09-03T07:58:31;8.83;;;8.00;;
5718;SDS011;2884;47.734;9.244;2022-09-03T08:00:57;7.83;;;5.90;;
5718;SDS011;2884;47.734;9.244;2022-09-03T08:03:24;5.33;;;4.80;;
5718;SDS011;2884;47.734;9.244;2022-09-03T08:05:50;4.10;;;3.80;;
5718;SDS011;2884;47.734;9.244;2022-09-03T08:08:19;4.23;;;3.90;;
5718;SDS011;2884;47.734;9.244;2022-09-03T08:10:45;4.87;;;4.37;;
5718;SDS011;2884;47.734;9.244;2022-09-03T08:13:12;4.33;;;3.70;;
5718;SDS011;2884;47.734;9.244;2022-09-03T08:15:37;5.13;;;3.93;;
5718;SDS011;2884;47.734;9.244;2022-09-03T08:18:09;3.77;;;3.23;;
5718;SDS011;2884;47.734;9.244;2022-09-03T08:20:35;3.23;;;2.93;;
5718;SDS011;2884;47.734;9.244;2022-09-03T08:23:01;6.87;;;2.70;;
5718;SDS011;2884;47.734;9.244;2022-09-03T08:25:28;2.97;;;2.63;;
5718;SDS011;2884;47.734;9.244;2022-09-03T08:27:56;4.73;;;2.73;;
5718;SDS011;2884;47.734;9.244;2022-09-03T08:30:22;3.03;;;2.60;;
5718;SDS011;2884;47.734;9.244;2022-09-03T08:32:49;4.73;;;2.10;;
5718;SDS011;2884;47.734;9.244;2022-09-03T08:35:15;2.67;;;2.47;;
5718;SDS011;2884;47.734;9.244;2022-09-03T08:37:40;2.70;;;2.50;;
5718;SDS011;2884;47.734;9.244;2022-09-03T08:40:06;5.90;;;2.50;;
5718;SDS011;2884;47.734;9.244;2022-09-03T08:42:38;4.57;;;3.00;;
5718;SDS011;2884;47.734;9.244;2022-09-03T08:45:12;3.40;;;3.10;;
5718;SDS011;2884;47.734;9.244;2022-09-03T08:47:45;2.87;;;2.67;;
5718;SDS011;2884;47.734;9.244;2022-09-03T08:55:27;2.07;;;1.97;;
5718;SDS011;2884;47.734;9.244;2022-09-03T08:58:15;2.07;;;1.97;;
5718;SDS011;2884;47.734;9.244;2022-09-03T09:18:04;2.20;;;2.00;;
5718;SDS011;2884;47.734;9.244;2022-09-03T09:22:48;2.50;;;2.30;;
5718;SDS011;2884;47.734;9.244;2022-09-03T09:25:20;2.17;;;2.07;;
5718;SDS011;2884;47.734;9.244;2022-09-03T09:27:50;2.20;;;1.70;;
5718;SDS011;2884;47.734;9.244;2022-09-03T09:30:19;2.00;;;1.90;;
5718;SDS011;2884;47.734;9.244;2022-09-03T09:32:44;2.50;;;2.30;;
5718;SDS011;2884;47.734;9.244;2022-09-03T09:35:12;3.03;;;1.90;;
5718;SDS011;2884;47.734;9.244;2022-09-03T09:37:46;2.10;;;2.00;;
5718;SDS011;2884;47.734;9.244;2022-09-03T09:40:29;3.47;;;1.87;;
5718;SDS011;2884;47.734;9.244;2022-09-03T09:43:18;1.83;;;1.73;;
5718;SDS011;2884;47.734;9.244;2022-09-03T09:45:50;4.60;;;1.67;;
5718;SDS011;2884;47.734;9.244;2022-09-03T09:48:30;2.13;;;1.93;;
5718;SDS011;2884;47.734;9.244;2022-09-03T09:51:09;3.73;;;2.13;;
5718;SDS011;2884;47.734;9.244;2022-09-03T09:53:36;1.70;;;1.60;;
5718;SDS011;2884;47.734;9.244;2022-09-03T09:56:03;1.90;;;1.80;;
5718;SDS011;2884;47.734;9.244;2022-09-03T09:58:30;3.40;;;1.83;;
5718;SDS011;2884;47.734;9.244;2022-09-03T10:03:29;1.77;;;1.67;;
5718;SDS011;2884;47.734;9.244;2022-09-03T10:06:04;5.77;;;1.70;;
5718;SDS011;2884;47.734;9.244;2022-09-03T10:08:50;2.07;;;1.80;;
5718;SDS011;2884;47.734;9.244;2022-09-03T10:11:17;4.30;;;2.03;;
5718;SDS011;2884;47.734;9.244;2022-09-03T10:13:45;4.20;;;1.60;;
5718;SDS011;2884;47.734;9.244;2022-09-03T10:16:20;1.60;;;1.50;;
5718;SDS011;2884;47.734;9.244;2022-09-03T10:19:10;1.93;;;1.83;;
5718;SDS011;2884;47.734;9.244;2022-09-03T10:21:42;2.40;;;2.20;;
5718;SDS011;2884;47.734;9.244;2022-09-03T10:27:25;2.30;;;2.10;;
5718;SDS011;2884;47.734;9.244;2022-09-03T10:29:51;2.70;;;2.20;;
5718;SDS011;2884;47.734;9.244;2022-09-03T10:32:36;3.17;;;2.83;;
5718;SDS011;2884;47.734;9.244;2022-09-03T10:43:17;5.23;;;3.40;;
5718;SDS011;2884;47.734;9.244;2022-09-03T10:46:14;4.60;;;3.43;;
5718;SDS011;2884;47.734;9.244;2022-09-03T10:51:19;3.30;;;3.00;;
5718;SDS011;2884;47.734;9.244;2022-09-03T10:56:35;4.17;;;3.57;;
5718;SDS011;2884;47.734;9.244;2022-09-03T11:07:42;2.90;;;2.67;;
5718;SDS011;2884;47.734;9.244;2022-09-03T11:13:15;5.63;;;3.33;;
5718;SDS011;2884;47.734;9.244;2022-09-03T11:15:47;3.70;;;3.50;;
5718;SDS011;2884;47.734;9.244;2022-09-03T11:18:30;4.80;;;4.00;;
5718;SDS011;2884;47.734;9.244;2022-09-03T11:21:00;6.40;;;4.00;;
5718;SDS011;2884;47.734;9.244;2022-09-03T11:23:30;3.40;;;3.20;;
5718;SDS011;2884;47.734;9.244;2022-09-03T11:26:01;2.97;;;2.80;;
5718;SDS011;2884;47.734;9.244;2022-09-03T11:28:43;3.67;;;2.53;;
5718;SDS011;2884;47.734;9.244;2022-09-03T11:33:58;2.60;;;2.23;;
5718;SDS011;2884;47.734;9.244;2022-09-03T11:41:59;2.20;;;2.10;;
5718;SDS011;2884;47.734;9.244;2022-09-03T11:44:34;2.60;;;2.40;;
5718;SDS011;2884;47.734;9.244;2022-09-03T11:47:11;1.60;;;1.50;;
5718;SDS011;2884;47.734;9.244;2022-09-03T11:49:45;2.87;;;1.97;;
5718;SDS011;2884;47.734;9.244;2022-09-03T11:52:28;3.40;;;2.20;;
5718;SDS011;2884;47.734;9.244;2022-09-03T11:54:56;3.27;;;2.70;;
5718;SDS011;2884;47.734;9.244;2022-09-03T11:59:47;7.30;;;2.33;;
5718;SDS011;2884;47.734;9.244;2022-09-03T12:02:24;2.50;;;2.30;;
5718;SDS011;2884;47.734;9.244;2022-09-03T12:05:10;3.43;;;2.90;;
5718;SDS011;2884;47.734;9.244;2022-09-03T12:16:11;6.87;;;2.73;;
5718;SDS011;2884;47.734;9.244;2022-09-03T12:18:53;5.20;;;3.23;;
5718;SDS011;2884;47.734;9.244;2022-09-03T12:21:21;4.47;;;2.70;;
5718;SDS011;2884;47.734;9.244;2022-09-03T12:23:48;2.80;;;2.60;;
5718;SDS011;2884;47.734;9.244;2022-09-03T12:26:19;2.80;;;2.60;;
5718;SDS011;2884;47.734;9.244;2022-09-03T12:28:51;3.07;;;2.77;;
5718;SDS011;2884;47.734;9.244;2022-09-03T12:31:23;3.30;;;3.00;;
5718;SDS011;2884;47.734;9.244;2022-09-03T12:33:54;2.80;;;1.40;;
5718;SDS011;2884;47.734;9.244;2022-09-03T12:36:23;1.10;;;1.10;;
5718;SDS011;2884;47.734;9.244;2022-09-03T12:38:50;0.93;;;0.93;;
5718;SDS011;2884;47.734;9.244;2022-09-03T12:41:19;1.43;;;0.97;;
5718;SDS011;2884;47.734;9.244;2022-09-03T12:43:50;1.53;;;1.00;;
5718;SDS011;2884;47.734;9.244;2022-09-03T12:46:16;0.90;;;0.90;;
5718;SDS011;2884;47.734;9.244;2022-09-03T12:48:51;1.00;;;0.90;;
5718;SDS011;2884;47.734;9.244;2022-09-03T12:51:20;1.20;;;0.90;;
5718;SDS011;2884;47.734;9.244;2022-09-03T12:53:46;1.03;;;0.73;;
5718;SDS011;2884;47.734;9.244;2022-09-03T12:56:13;0.90;;;0.70;;
5718;SDS011;2884;47.734;9.244;2022-09-03T12:58:53;0.90;;;0.90;;
5718;SDS011;2884;47.734;9.244;2022-09-03T13:01:26;2.23;;;0.90;;
5718;SDS011;2884;47.734;9.244;2022-09-03T13:04:03;1.47;;;1.00;;
5718;SDS011;2884;47.734;9.244;2022-09-03T13:06:34;0.80;;;0.80;;
5718;SDS011;2884;47.734;9.244;2022-09-03T13:09:06;2.87;;;0.90;;
5718;SDS011;2884;47.734;9.244;2022-09-03T13:11:33;1.00;;;1.00;;
5718;SDS011;2884;47.734;9.244;2022-09-03T13:14:02;6.53;;;0.90;;
5718;SDS011;2884;47.734;9.244;2022-09-03T13:22:52;1.07;;;0.70;;
5718;SDS011;2884;47.734;9.244;2022-09-03T13:28:20;0.80;;;0.80;;
5718;SDS011;2884;47.734;9.244;2022-09-03T13:33:56;3.10;;;1.13;;
5718;SDS011;2884;47.734;9.244;2022-09-03T13:36:30;0.90;;;0.90;;
5718;SDS011;2884;47.734;9.244;2022-09-03T13:39:02;1.13;;;1.00;;
5718;SDS011;2884;47.734;9.244;2022-09-03T13:44:23;1.10;;;1.00;;
5718;SDS011;2884;47.734;9.244;2022-09-03T13:47:17;1.57;;;0.80;;
5718;SDS011;2884;47.734;9.244;2022-09-03T13:49:48;1.30;;;1.20;;
5718;SDS011;2884;47.734;9.244;2022-09-03T13:55:45;1.03;;;0.97;;
5718;SDS011;2884;47.734;9.244;2022-09-03T14:03:57;1.20;;;1.00;;
5718;SDS011;2884;47.734;9.244;2022-09-03T14:06:41;0.83;;;0.83;;
5718;SDS011;2884;47.734;9.244;2022-09-03T14:17:15;1.47;;;1.13;;
5718;SDS011;2884;47.734;9.244;2022-09-03T14:20:30;1.43;;;1.33;;
5718;SDS011;2884;47.734;9.244;2022-09-03T14:22:43;1.20;;;1.10;;
5718;SDS011;2884;47.734;9.244;2022-09-03T14:25:20;2.00;;;1.10;;
5718;SDS011;2884;47.734;9.244;2022-09-03T14:27:47;1.00;;;1.00;;
5718;SDS011;2884;47.734;9.244;2022-09-03T14:30:56;1.53;;;1.20;;
5718;SDS011;2884;47.734;9.244;2022-09-03T14:35:51;1.20;;;1.10;;
5718;SDS011;2884;47.734;9.244;2022-09-03T14:51:32;1.20;;;1.10;;
5718;SDS011;2884;47.734;9.244;2022-09-03T15:05:20;1.30;;;1.20;;
5718;SDS011;2884;47.734;9.244;2022-09-03T15:08:01;1.57;;;1.47;;
5718;SDS011;2884;47.734;9.244;2022-09-03T15:31:53;6.63;;;1.37;;
5718;SDS011;2884;47.734;9.244;2022-09-03T15:34:34;1.27;;;1.00;;
5718;SDS011;2884;47.734;9.244;2022-09-03T15:37:07;1.00;;;1.00;;
5718;SDS011;2884;47.734;9.244;2022-09-03T15:39:37;1.27;;;1.10;;
5718;SDS011;2884;47.734;9.244;2022-09-03T15:42:08;1.10;;;1.10;;
5718;SDS011;2884;47.734;9.244;2022-09-03T15:44:48;1.37;;;1.27;;
5718;SDS011;2884;47.734;9.244;2022-09-03T15:47:31;6.40;;;1.00;;
5718;SDS011;2884;47.734;9.244;2022-09-03T15:50:00;1.30;;;1.20;;
5718;SDS011;2884;47.734;9.244;2022-09-03T15:57:52;1.50;;;1.40;;
5718;SDS011;2884;47.734;9.244;2022-09-03T16:00:55;1.43;;;1.30;;
5718;SDS011;2884;47.734;9.244;2022-09-03T16:03:32;1.60;;;1.50;;
5718;SDS011;2884;47.734;9.244;2022-09-03T16:06:01;1.20;;;1.10;;
5718;SDS011;2884;47.734;9.244;2022-09-03T16:08:41;1.13;;;1.10;;
5718;SDS011;2884;47.734;9.244;2022-09-03T16:16:32;1.50;;;1.40;;
5718;SDS011;2884;47.734;9.244;2022-09-03T16:22:04;1.73;;;1.20;;
5718;SDS011;2884;47.734;9.244;2022-09-03T16:24:37;0.90;;;0.90;;
5718;SDS011;2884;47.734;9.244;2022-09-03T16:29:39;1.00;;;1.00;;
5718;SDS011;2884;47.734;9.244;2022-09-03T16:42:44;2.57;;;2.10;;
5718;SDS011;2884;47.734;9.244;2022-09-03T16:51:39;1.20;;;1.10;;
5718;SDS011;2884;47.734;9.244;2022-09-03T16:54:17;1.70;;;1.37;;
5718;SDS011;2884;47.734;9.244;2022-09-03T16:59:54;1.20;;;1.10;;
5718;SDS011;2884;47.734;9.244;2022-09-03T17:21:49;1.30;;;1.30;;
5718;SDS011;2884;47.734;9.244;2022-09-03T17:24:40;2.50;;;1.10;;
5718;SDS011;2884;47.734;9.244;2022-09-03T17:30:26;2.93;;;1.20;;
5718;SDS011;2884;47.734;9.244;2022-09-03T17:46:24;1.70;;;1.43;;
5718;SDS011;2884;47.734;9.244;2022-09-03T17:48:55;1.53;;;1.43;;
5718;SDS011;2884;47.734;9.244;2022-09-03T17:59:39;2.03;;;1.40;;
5718;SDS011;2884;47.734;9.244;2022-09-03T18:07:57;2.13;;;1.50;;
5718;SDS011;2884;47.734;9.244;2022-09-03T18:13:17;1.10;;;1.10;;
5718;SDS011;2884;47.734;9.244;2022-09-03T18:19:01;1.63;;;1.30;;
5718;SDS011;2884;47.734;9.244;2022-09-03T18:21:29;1.83;;;1.50;;
5718;SDS011;2884;47.734;9.244;2022-09-03T18:27:25;1.77;;;1.67;;
5718;SDS011;2884;47.734;9.244;2022-09-03T18:30:11;1.60;;;1.50;;
5718;SDS011;2884;47.734;9.244;2022-09-03T18:32:57;1.87;;;1.60;;
5718;SDS011;2884;47.734;9.244;2022-09-03T18:35:42;1.60;;;1.50;;
5718;SDS011;2884;47.734;9.244;2022-09-03T18:38:27;3.13;;;1.97;;
5718;SDS011;2884;47.734;9.244;2022-09-03T18:47:26;3.87;;;2.33;;
5718;SDS011;2884;47.734;9.244;2022-09-03T18:56:18;4.10;;;1.90;;
5718;SDS011;2884;47.734;9.244;2022-09-03T19:02:24;8.30;;;2.00;;
5718;SDS011;2884;47.734;9.244;2022-09-03T19:05:16;2.00;;;1.90;;
5718;SDS011;2884;47.734;9.244;2022-09-03T19:11:11;2.43;;;2.20;;
5718;SDS011;2884;47.734;9.244;2022-09-03T19:14:20;3.30;;;2.70;;
5718;SDS011;2884;47.734;9.244;2022-09-03T19:21:35;2.60;;;2.40;;
5718;SDS011;2884;47.734;9.244;2022-09-03T19:23:58;3.50;;;2.27;;
5718;SDS011;2884;47.734;9.244;2022-09-03T19:32:55;2.40;;;2.30;;
5718;SDS011;2884;47.734;9.244;2022-09-03T19:41:43;2.90;;;2.63;;
5718;SDS011;2884;47.734;9.244;2022-09-03T19:50:32;2.63;;;2.53;;
5718;SDS011;2884;47.734;9.244;2022-09-03T19:53:18;9.83;;;3.90;;
5718;SDS011;2884;47.734;9.244;2022-09-03T19:56:04;6.70;;;3.43;;
5718;SDS011;2884;47.734;9.244;2022-09-03T19:58:55;3.20;;;3.00;;
5718;SDS011;2884;47.734;9.244;2022-09-03T20:01:41;2.93;;;2.73;;
5718;SDS011;2884;47.734;9.244;2022-09-03T20:04:37;4.33;;;2.80;;
5718;SDS011;2884;47.734;9.244;2022-09-03T20:07:24;2.87;;;2.77;;
5718;SDS011;2884;47.734;9.244;2022-09-03T20:10:09;4.67;;;2.97;;
5718;SDS011;2884;47.734;9.244;2022-09-03T20:12:53;3.70;;;2.97;;
5718;SDS011;2884;47.734;9.244;2022-09-03T20:15:21;2.90;;;2.80;;
5718;SDS011;2884;47.734;9.244;2022-09-03T20:17:52;3.37;;;3.03;;
5718;SDS011;2884;47.734;9.244;2022-09-03T20:23:00;3.13;;;2.90;;
5718;SDS011;2884;47.734;9.244;2022-09-03T20:25:38;3.80;;;3.00;;
5718;SDS011;2884;47.734;9.244;2022-09-03T20:28:21;3.37;;;3.17;;
5718;SDS011;2884;47.734;9.244;2022-09-03T20:30:55;5.40;;;3.23;;
5718;SDS011;2884;47.734;9.244;2022-09-03T20:33:47;3.33;;;3.13;;
5718;SDS011;2884;47.734;9.244;2022-09-03T20:51:01;4.33;;;3.97;;
5718;SDS011;2884;47.734;9.244;2022-09-03T20:56:00;4.60;;;4.30;;
5718;SDS011;2884;47.734;9.244;2022-09-03T21:01:21;5.13;;;4.83;;
5718;SDS011;2884;47.734;9.244;2022-09-03T21:06:54;6.70;;;5.03;;
5718;SDS011;2884;47.734;9.244;2022-09-03T21:09:30;5.43;;;5.03;;
5718;SDS011;2884;47.734;9.244;2022-09-03T21:14:33;5.90;;;5.30;;
5718;SDS011;2884;47.734;9.244;2022-09-03T21:22:18;6.37;;;5.90;;
5718;SDS011;2884;47.734;9.244;2022-09-03T21:25:06;8.43;;;6.47;;
5718;SDS011;2884;47.734;9.244;2022-09-03T21:27:38;7.10;;;5.83;;
5718;SDS011;2884;47.734;9.244;2022-09-03T21:30:08;6.70;;;6.30;;
5718;SDS011;2884;47.734;9.244;2022-09-03T21:32:54;6.60;;;6.20;;
5718;SDS011;2884;47.734;9.244;2022-09-03T21:35:32;6.83;;;6.47;;
5718;SDS011;2884;47.734;9.244;2022-09-03T21:38:04;8.07;;;7.20;;
5718;SDS011;2884;47.734;9.244;2022-09-03T21:40:32;8.70;;;7.50;;
5718;SDS011;2884;47.734;9.244;2022-09-03T21:43:07;8.43;;;6.77;;
5718;SDS011;2884;47.734;9.244;2022-09-03T21:45:52;11.03;;;7.47;;
5718;SDS011;2884;47.734;9.244;2022-09-03T21:48:25;8.57;;;7.73;;
5718;SDS011;2884;47.734;9.244;2022-09-03T21:56:38;7.80;;;7.20;;
5718;SDS011;2884;47.734;9.244;2022-09-03T22:04:23;8.70;;;8.20;;
5718;SDS011;2884;47.734;9.244;2022-09-03T22:06:53;7.90;;;7.50;;
5718;SDS011;2884;47.734;9.244;2022-09-03T22:09:33;8.53;;;8.00;;
5718;SDS011;2884;47.734;9.244;2022-09-03T22:14:55;8.70;;;8.13;;
5718;SDS011;2884;47.734;9.244;2022-09-03T22:19:55;9.07;;;8.57;;